AirNav   Phillips 66 Aviation Fuel
 
 1518 users online  

CL35 Warner Springs Gliderport
Warner Springs, California, USA

GOING TO WARNER SPRINGS?


FAA INFORMATION EFFECTIVE 11 OCTOBER 2018

Location

FAA Identifier: CL35
Lat/Long: 33-17-04.2100N / 116-40-10.7650W
33-17.070167N / 116-40.179417W
33.2845028 / -116.6696569
(estimated)
Elevation: 2880 ft. / 878 m (estimated)
Variation: 13E (1985)
From city: 2 miles E of WARNER SPRINGS, CA
Time zone: UTC -7 (UTC -8 during Standard Time)
Zip code: 92086

Gliderport Operations

Gliderport use: Private use. Permission required prior to landing
Activation date: 10/1984
Control tower: no
ARTCC: LOS ANGELES CENTER
FSS: SAN DIEGO FLIGHT SERVICE STATION
Attendance: 0900-1700
Wind indicator: yes
Segmented circle: yes
Landing fee: yes

Gliderport Communications

UNICOM: 122.8
WX AWOS-3P at L08 (18 nm E): 126.575 (760-767-3308)
WX ASOS at RNM (19 nm SW): 132.025 (760-789-0736)

Nearby radio navigation aids

VOR radial/distance  VOR name  Freq  Var
JLIr319/9.6JULIAN VORTAC114.0015E
TRMr218/32.8THERMAL VORTAC116.2013E
PSPr186/37.1PALM SPRINGS VORTAC115.5013E
OCNr071/37.6OCEANSIDE VORTAC115.3015E
HDFr125/(39.2)HOMELAND VOR113.4014E

Gliderport Services

Runway Information

Runway 8/26

Dimensions: 3500 x 70 ft. / 1067 x 21 m
Surface: asphalt
RUNWAY 8  RUNWAY 26
Latitude: 33-17.060333N33-17.080000N
Longitude: 116-40.522667W116-39.836167W
Elevation: 2873.0 ft.2914.0 ft.
Traffic pattern: leftleft
Obstructions: none200 ft. hill, 5200 ft. from runway

Gliderport Ownership and Management from official FAA records

Ownership: Privately-owned
Owner: WARNER SPRINGS RANCH RESORT, LLC
31930 HWY 79
WARNER SPRINGS, CA 92086
Phone 760-782-4200
SKY SAILING 31930 HWY 79.
Manager: BRET WILLAT
SKY SAILING 31930 HWY 79
WARNER SPRINGS, CA 92086
Phone 760-782-0404
LEASEE.

Gliderport Operational Statistics

Aircraft based on the field: 80
Single engine airplanes: 10
Gliders airplanes: 70
    

Instrument Procedures

There are no published instrument procedures at CL35.

Some nearby airports with instrument procedures:

L08 - Borrego Valley Airport (18 nm E)
KRNM - Ramona Airport (19 nm SW)
F70 - French Valley Airport (29 nm NW)
L18 - Fallbrook Community Airpark (29 nm W)
KSEE - Gillespie Field Airport (31 nm SW)
 
Loc | Ops | Rwys | IFR | FBO | Links
Com | Nav | Svcs | Stats | Notes


 
Area around CL35 (Warner Springs Gliderport)
 
Road maps at: MapQuest Bing Google
 
Aerial photo
WARNING: Photo may not be current or correct
Aerial photo of CL35 (Warner Springs Gliderport)
Photo by Steve Lupinacci
Photo taken 27-May-2008

Do you have a better or more recent aerial photo of Warner Springs Gliderport that you would like to share? If so, please send us your photo.

 
Sectional chart

 
Airport distance calculator
Flying to Warner Springs Gliderport? Find the distance to fly.

From to CL35

Sunrise and sunset
Times for 22-Oct-2018
 Local
(UTC-7)
 Zulu
(UTC)
Morning civil twilight06:3313:33
Sunrise06:5813:58
Sunset18:0501:05
Evening civil twilight18:3001:30

Current date and time
Zulu (UTC)  22-Oct-2018 20:06:41
Local (UTC-7)  22-Oct-2018 13:06:41
 
METAR
KL08 
18nm E 
221955Z AUTO 13013KT 10SM CLR 31/06 A2982 RMK AO2
KRNM 
20nm SW 
221953Z 31008KT 10SM CLR 24/11 A2989 RMK AO2 SLP110 T02390106
KF70 
29nm NW 
221955Z AUTO 21004KT 10SM CLR 24/08 A2989 RMK AO1
KL18 
29nm W 
221955Z AUTO 25005KT 10SM CLR 23/12 A2988 RMK AO2
KSEE 
32nm SW 
221947Z 00000KT 10SM SKC 24/12 A2986
KCRQ 
32nm W 
221953Z 25008KT 10SM CLR 19/14 A2987 RMK AO2 SLP113 T01940139
KTRM 
33nm NE 
221952Z AUTO 15005KT 10SM CLR 32/08 A2979 RMK AO2 SLP090 T03170078
KPSP 
33nm N 
221953Z VRB06KT 10SM CLR 31/07 A2983 RMK AO2 SLP098 T03110067
KNFG 
33nm W 
221955Z 21007KT 10SM CLR 22/14 A2987 RMK AO2 SLP112 T02170139
KNKX 
34nm SW 
221855Z VRB03KT 10SM FEW100 23/13 A2990 RMK AO2 SLP120 T02330128
TAF
KCRQ 
32nm W 
221730Z 2218/2318 25003KT P6SM BKN017 FM221830 28008KT P6SM FEW015 SCT080 FM230100 VRB04KT P6SM OVC010 FM231500 VRB05KT 4SM BR BKN015
KTRM 
33nm NE 
221730Z 2218/2318 VRB04KT P6SM SKC FM222100 14007KT P6SM FEW250 FM230300 VRB05KT P6SM FEW250
KPSP 
33nm N 
221730Z 2218/2318 VRB04KT P6SM SKC FM222300 12008KT P6SM FEW250 FM230200 33005KT P6SM FEW250
KNFG 
33nm W 
2215/2315 VRB05KT 9999 OVC015 QNH2987INS BECMG 2216/2218 24010KT 9999 SCT250 QNH2980INS BECMG 2302/2304 VRB04KT 9999 OVC015 QNH2984INS T22/2221Z T14/2311Z
KNKX 
34nm SW 
2215/2315 VRB06KT 9999 OVC010 QNH2991INS BECMG 2216/2218 VRB06KT 9999 FEW030 QNH2993INS BECMG 2302/2304 VRB06KT 9999 OVC010 QNH2989INS T27/2221Z T16/2213Z
NOTAMs
Click for the latest NOTAMs
NOTAMs are issued by the DoD/FAA and will open in a separate window not controlled by AirNav.

 

 
 

Would you like to see your business listed on this page?

 If your business provides an interesting product or service to pilots, flight crews, aircraft, or users of the Warner Springs Gliderport, you should consider listing it here.  To start the listing process, click on the button below
 
Add a business
 

Other Pages about Warner Springs Gliderport

www.agcsc.org/warner_springs_info.html
 
Update a link
 
Copyright © AirNav, LLC. All rights reserved. Privacy Policy  Contact